sensor_id;sensor_type;location;lat;lon;timestamp;pressure;altitude;pressure_sealevel;temperature;humidity
829;BME280;396;52.558;13.188;2023-03-01T00:01:25;102616.25;;;-2.90;88.11
829;BME280;396;52.558;13.188;2023-03-01T00:03:53;102615.28;;;-2.81;88.43
829;BME280;396;52.558;13.188;2023-03-01T00:06:20;102617.44;;;-2.84;87.62
829;BME280;396;52.558;13.188;2023-03-01T00:08:48;102615.09;;;-2.95;87.16
829;BME280;396;52.558;13.188;2023-03-01T00:11:17;102613.91;;;-3.09;87.79
829;BME280;396;52.558;13.188;2023-03-01T00:13:46;102606.78;;;-3.09;87.85
829;BME280;396;52.558;13.188;2023-03-01T00:16:15;102610.56;;;-3.11;89.46
829;BME280;396;52.558;13.188;2023-03-01T00:18:42;102593.53;;;-3.00;90.81
829;BME280;396;52.558;13.188;2023-03-01T00:21:09;102592.22;;;-3.05;90.40
829;BME280;396;52.558;13.188;2023-03-01T00:23:35;102593.53;;;-3.00;91.62
829;BME280;396;52.558;13.188;2023-03-01T00:26:05;102594.88;;;-2.96;90.10
829;BME280;396;52.558;13.188;2023-03-01T00:28:34;102588.03;;;-3.07;90.12
829;BME280;396;52.558;13.188;2023-03-01T00:31:03;102586.56;;;-3.10;90.13
829;BME280;396;52.558;13.188;2023-03-01T00:33:30;102586.69;;;-3.11;90.71
829;BME280;396;52.558;13.188;2023-03-01T00:35:57;102586.38;;;-3.08;90.91
829;BME280;396;52.558;13.188;2023-03-01T00:38:24;102585.88;;;-3.12;90.79
829;BME280;396;52.558;13.188;2023-03-01T00:40:51;102591.03;;;-3.02;89.45
829;BME280;396;52.558;13.188;2023-03-01T00:43:18;102596.03;;;-2.99;88.29
829;BME280;396;52.558;13.188;2023-03-01T00:45:46;102590.88;;;-3.09;88.96
829;BME280;396;52.558;13.188;2023-03-01T00:48:12;102587.28;;;-2.91;86.96
829;BME280;396;52.558;13.188;2023-03-01T00:50:39;102586.78;;;-2.87;86.58
829;BME280;396;52.558;13.188;2023-03-01T00:53:05;102590.78;;;-2.83;86.51
829;BME280;396;52.558;13.188;2023-03-01T00:55:32;102589.25;;;-2.85;86.50
829;BME280;396;52.558;13.188;2023-03-01T00:57:59;102587.41;;;-2.93;87.33
829;BME280;396;52.558;13.188;2023-03-01T01:00:26;102585.72;;;-3.10;88.57
829;BME280;396;52.558;13.188;2023-03-01T01:02:55;102571.94;;;-3.22;90.29
829;BME280;396;52.558;13.188;2023-03-01T01:05:21;102574.72;;;-3.32;90.90
829;BME280;396;52.558;13.188;2023-03-01T01:07:48;102574.03;;;-3.34;91.86
829;BME280;396;52.558;13.188;2023-03-01T01:10:15;102566.59;;;-3.30;92.38
829;BME280;396;52.558;13.188;2023-03-01T01:12:43;102570.91;;;-3.29;91.40
829;BME280;396;52.558;13.188;2023-03-01T01:15:10;102567.75;;;-3.33;92.01
829;BME280;396;52.558;13.188;2023-03-01T01:17:39;102567.25;;;-3.28;91.38
829;BME280;396;52.558;13.188;2023-03-01T01:20:09;102560.34;;;-3.21;90.48
829;BME280;396;52.558;13.188;2023-03-01T01:22:35;102554.50;;;-3.33;92.44
829;BME280;396;52.558;13.188;2023-03-01T01:25:02;102560.44;;;-3.39;91.94
829;BME280;396;52.558;13.188;2023-03-01T01:27:29;102548.34;;;-3.41;91.67
829;BME280;396;52.558;13.188;2023-03-01T01:29:55;102546.00;;;-3.52;92.41
829;BME280;396;52.558;13.188;2023-03-01T01:32:22;102534.53;;;-3.61;92.04
829;BME280;396;52.558;13.188;2023-03-01T01:34:49;102540.50;;;-3.59;92.10
829;BME280;396;52.558;13.188;2023-03-01T01:37:17;102536.72;;;-3.57;92.02
829;BME280;396;52.558;13.188;2023-03-01T01:39:43;102530.94;;;-3.52;91.94
829;BME280;396;52.558;13.188;2023-03-01T01:42:12;102532.38;;;-3.66;90.15
829;BME280;396;52.558;13.188;2023-03-01T01:44:42;102530.19;;;-3.70;90.16
829;BME280;396;52.558;13.188;2023-03-01T01:47:14;102526.91;;;-3.64;91.07
829;BME280;396;52.558;13.188;2023-03-01T01:49:46;102520.47;;;-3.62;89.47
829;BME280;396;52.558;13.188;2023-03-01T01:52:18;102516.00;;;-3.61;89.33
829;BME280;396;52.558;13.188;2023-03-01T01:54:50;102512.41;;;-3.52;88.37
829;BME280;396;52.558;13.188;2023-03-01T01:57:22;102516.16;;;-3.63;89.50
829;BME280;396;52.558;13.188;2023-03-01T01:59:52;102507.97;;;-3.77;90.20
829;BME280;396;52.558;13.188;2023-03-01T02:02:20;102511.56;;;-3.87;89.49
829;BME280;396;52.558;13.188;2023-03-01T02:04:47;102514.06;;;-3.85;90.38
829;BME280;396;52.558;13.188;2023-03-01T02:07:16;102518.69;;;-3.87;90.85
829;BME280;396;52.558;13.188;2023-03-01T02:09:46;102525.22;;;-3.73;91.88
829;BME280;396;52.558;13.188;2023-03-01T02:12:14;102530.97;;;-3.78;88.89
829;BME280;396;52.558;13.188;2023-03-01T02:14:41;102521.84;;;-3.84;89.12
829;BME280;396;52.558;13.188;2023-03-01T02:17:07;102516.81;;;-3.95;89.51
829;BME280;396;52.558;13.188;2023-03-01T02:19:43;102525.44;;;-3.93;90.89
829;BME280;396;52.558;13.188;2023-03-01T02:22:18;102528.75;;;-3.91;89.55
829;BME280;396;52.558;13.188;2023-03-01T02:24:55;102532.34;;;-4.00;89.76
829;BME280;396;52.558;13.188;2023-03-01T02:27:30;102536.91;;;-3.84;90.44
829;BME280;396;52.558;13.188;2023-03-01T02:30:01;102537.88;;;-3.85;89.97
829;BME280;396;52.558;13.188;2023-03-01T02:32:27;102532.41;;;-3.92;90.14
829;BME280;396;52.558;13.188;2023-03-01T02:34:55;102543.66;;;-3.90;89.03
829;BME280;396;52.558;13.188;2023-03-01T02:37:23;102543.97;;;-3.93;90.92
829;BME280;396;52.558;13.188;2023-03-01T02:39:54;102536.88;;;-3.92;92.48
829;BME280;396;52.558;13.188;2023-03-01T02:42:26;102533.81;;;-4.06;92.54
829;BME280;396;52.558;13.188;2023-03-01T02:44:54;102532.50;;;-4.01;92.00
829;BME280;396;52.558;13.188;2023-03-01T02:47:22;102523.59;;;-4.00;90.66
829;BME280;396;52.558;13.188;2023-03-01T02:49:49;102536.47;;;-4.06;90.47
829;BME280;396;52.558;13.188;2023-03-01T02:52:40;102537.59;;;-4.08;91.32
829;BME280;396;52.558;13.188;2023-03-01T02:55:11;102522.28;;;-3.96;92.25
829;BME280;396;52.558;13.188;2023-03-01T02:57:40;102522.16;;;-3.87;92.29
829;BME280;396;52.558;13.188;2023-03-01T03:00:11;102515.22;;;-3.88;90.95
829;BME280;396;52.558;13.188;2023-03-01T03:02:46;102510.03;;;-3.97;90.44
829;BME280;396;52.558;13.188;2023-03-01T03:05:15;102508.28;;;-3.89;90.03
829;BME280;396;52.558;13.188;2023-03-01T03:07:44;102508.28;;;-3.89;89.93
829;BME280;396;52.558;13.188;2023-03-01T03:10:14;102514.78;;;-3.75;89.37
829;BME280;396;52.558;13.188;2023-03-01T03:12:41;102515.31;;;-3.71;89.03
829;BME280;396;52.558;13.188;2023-03-01T03:15:10;102523.25;;;-3.71;88.63
829;BME280;396;52.558;13.188;2023-03-01T03:17:39;102518.22;;;-3.83;88.13
829;BME280;396;52.558;13.188;2023-03-01T03:20:10;102510.56;;;-3.94;88.88
829;BME280;396;52.558;13.188;2023-03-01T03:22:37;102514.50;;;-3.98;89.61
829;BME280;396;52.558;13.188;2023-03-01T03:25:05;102513.31;;;-4.03;90.82
829;BME280;396;52.558;13.188;2023-03-01T03:27:35;102505.88;;;-4.00;92.72
829;BME280;396;52.558;13.188;2023-03-01T03:30:04;102505.94;;;-3.92;92.15
829;BME280;396;52.558;13.188;2023-03-01T03:32:34;102492.41;;;-4.15;90.37
829;BME280;396;52.558;13.188;2023-03-01T03:35:01;102496.81;;;-4.23;90.98
829;BME280;396;52.558;13.188;2023-03-01T03:37:29;102495.31;;;-4.26;92.46
829;BME280;396;52.558;13.188;2023-03-01T03:40:18;102498.41;;;-4.31;93.10
829;BME280;396;52.558;13.188;2023-03-01T03:42:45;102495.94;;;-4.32;92.25
829;BME280;396;52.558;13.188;2023-03-01T03:45:12;102486.25;;;-4.23;93.49
829;BME280;396;52.558;13.188;2023-03-01T03:47:38;102484.31;;;-4.13;93.65
829;BME280;396;52.558;13.188;2023-03-01T03:50:05;102483.69;;;-4.07;93.58
829;BME280;396;52.558;13.188;2023-03-01T03:52:33;102475.56;;;-4.14;93.09
829;BME280;396;52.558;13.188;2023-03-01T03:55:00;102473.03;;;-4.23;91.73
829;BME280;396;52.558;13.188;2023-03-01T03:57:26;102471.84;;;-4.21;90.09
829;BME280;396;52.558;13.188;2023-03-01T03:59:53;102470.97;;;-4.29;89.84
829;BME280;396;52.558;13.188;2023-03-01T04:02:20;102480.59;;;-4.28;90.32
829;BME280;396;52.558;13.188;2023-03-01T04:04:49;102477.38;;;-4.14;89.00
829;BME280;396;52.558;13.188;2023-03-01T04:07:16;102469.38;;;-4.22;88.83
829;BME280;396;52.558;13.188;2023-03-01T04:09:44;102469.44;;;-4.40;91.31
829;BME280;396;52.558;13.188;2023-03-01T04:12:10;102471.91;;;-4.39;91.62
829;BME280;396;52.558;13.188;2023-03-01T04:14:37;102471.56;;;-4.44;90.21
829;BME280;396;52.558;13.188;2023-03-01T04:17:03;102463.50;;;-4.42;89.82
829;BME280;396;52.558;13.188;2023-03-01T04:19:30;102471.31;;;-4.33;89.39
829;BME280;396;52.558;13.188;2023-03-01T04:22:01;102479.66;;;-4.45;90.95
829;BME280;396;52.558;13.188;2023-03-01T04:24:32;102469.38;;;-4.48;90.17
829;BME280;396;52.558;13.188;2023-03-01T04:27:00;102479.28;;;-4.50;90.04
829;BME280;396;52.558;13.188;2023-03-01T04:29:27;102480.06;;;-4.58;89.71
829;BME280;396;52.558;13.188;2023-03-01T04:31:54;102481.19;;;-4.61;90.76
829;BME280;396;52.558;13.188;2023-03-01T04:34:20;102464.72;;;-4.54;92.17
829;BME280;396;52.558;13.188;2023-03-01T04:36:47;102470.31;;;-4.58;89.63
829;BME280;396;52.558;13.188;2023-03-01T04:39:13;102467.56;;;-4.48;89.60
829;BME280;396;52.558;13.188;2023-03-01T04:41:40;102473.00;;;-4.49;89.40
829;BME280;396;52.558;13.188;2023-03-01T04:44:09;102476.94;;;-4.53;90.95
829;BME280;396;52.558;13.188;2023-03-01T04:46:36;102472.44;;;-4.61;89.70
829;BME280;396;52.558;13.188;2023-03-01T04:49:03;102474.63;;;-4.74;89.99
829;BME280;396;52.558;13.188;2023-03-01T04:51:30;102467.78;;;-4.85;90.79
829;BME280;396;52.558;13.188;2023-03-01T04:53:58;102470.44;;;-4.85;91.96
829;BME280;396;52.558;13.188;2023-03-01T04:56:25;102471.03;;;-4.73;92.66
829;BME280;396;52.558;13.188;2023-03-01T04:58:53;102466.66;;;-4.57;91.88
829;BME280;396;52.558;13.188;2023-03-01T05:01:21;102470.13;;;-4.64;89.30
829;BME280;396;52.558;13.188;2023-03-01T05:03:49;102469.88;;;-4.71;90.08
829;BME280;396;52.558;13.188;2023-03-01T05:06:17;102469.59;;;-4.68;89.67
829;BME280;396;52.558;13.188;2023-03-01T05:08:44;102466.22;;;-4.52;88.98
829;BME280;396;52.558;13.188;2023-03-01T05:11:12;102468.44;;;-4.39;88.52
829;BME280;396;52.558;13.188;2023-03-01T05:13:39;102470.31;;;-4.58;88.60
829;BME280;396;52.558;13.188;2023-03-01T05:16:07;102472.44;;;-4.61;91.54
829;BME280;396;52.558;13.188;2023-03-01T05:18:37;102461.50;;;-4.66;90.14
829;BME280;396;52.558;13.188;2023-03-01T05:21:07;102466.72;;;-4.74;89.60
829;BME280;396;52.558;13.188;2023-03-01T05:23:34;102463.75;;;-4.71;90.60
829;BME280;396;52.558;13.188;2023-03-01T05:26:02;102462.13;;;-4.72;90.45
829;BME280;396;52.558;13.188;2023-03-01T05:28:30;102454.19;;;-4.72;90.49
829;BME280;396;52.558;13.188;2023-03-01T05:30:57;102457.75;;;-4.82;89.34
829;BME280;396;52.558;13.188;2023-03-01T05:33:24;102462.97;;;-4.90;89.08
829;BME280;396;52.558;13.188;2023-03-01T05:35:52;102455.94;;;-4.81;89.22
829;BME280;396;52.558;13.188;2023-03-01T05:38:20;102461.44;;;-4.92;89.44
829;BME280;396;52.558;13.188;2023-03-01T05:40:48;102461.31;;;-4.91;89.27
829;BME280;396;52.558;13.188;2023-03-01T05:43:16;102458.34;;;-4.88;89.28
829;BME280;396;52.558;13.188;2023-03-01T05:45:43;102455.25;;;-4.83;90.38
829;BME280;396;52.558;13.188;2023-03-01T05:48:11;102451.66;;;-5.00;88.90
829;BME280;396;52.558;13.188;2023-03-01T05:50:39;102451.19;;;-4.95;90.05
829;BME280;396;52.558;13.188;2023-03-01T05:53:10;102444.47;;;-4.90;91.63
829;BME280;396;52.558;13.188;2023-03-01T05:55:38;102445.19;;;-4.79;90.08
829;BME280;396;52.558;13.188;2023-03-01T05:58:06;102444.75;;;-4.93;89.00
829;BME280;396;52.558;13.188;2023-03-01T06:00:33;102451.19;;;-4.95;89.91
829;BME280;396;52.558;13.188;2023-03-01T06:03:01;102452.03;;;-4.95;90.52
829;BME280;396;52.558;13.188;2023-03-01T06:05:28;102458.97;;;-4.94;90.29
829;BME280;396;52.558;13.188;2023-03-01T06:07:55;102458.28;;;-4.96;91.88
829;BME280;396;52.558;13.188;2023-03-01T06:10:25;102459.16;;;-4.87;92.27
829;BME280;396;52.558;13.188;2023-03-01T06:12:52;102452.69;;;-4.93;92.59
829;BME280;396;52.558;13.188;2023-03-01T06:15:18;102451.69;;;-4.92;92.48
829;BME280;396;52.558;13.188;2023-03-01T06:17:45;102459.63;;;-4.92;92.78
829;BME280;396;52.558;13.188;2023-03-01T06:20:14;102455.47;;;-4.76;91.35
829;BME280;396;52.558;13.188;2023-03-01T06:22:42;102455.31;;;-4.75;91.46
829;BME280;396;52.558;13.188;2023-03-01T06:25:09;102449.88;;;-4.73;92.37
829;BME280;396;52.558;13.188;2023-03-01T06:27:37;102446.84;;;-4.78;92.62
829;BME280;396;52.558;13.188;2023-03-01T06:30:06;102456.31;;;-4.76;92.35
829;BME280;396;52.558;13.188;2023-03-01T06:32:33;102454.25;;;-4.64;92.87
829;BME280;396;52.558;13.188;2023-03-01T06:35:00;102444.91;;;-4.50;93.45
829;BME280;396;52.558;13.188;2023-03-01T06:37:26;102458.22;;;-4.34;91.49
829;BME280;396;52.558;13.188;2023-03-01T06:39:53;102462.13;;;-4.20;89.32
829;BME280;396;52.558;13.188;2023-03-01T06:42:19;102463.44;;;-4.16;88.41
829;BME280;396;52.558;13.188;2023-03-01T06:44:47;102472.75;;;-4.12;88.81
829;BME280;396;52.558;13.188;2023-03-01T06:47:14;102474.03;;;-4.16;88.92
829;BME280;396;52.558;13.188;2023-03-01T06:49:40;102477.78;;;-4.27;89.86
829;BME280;396;52.558;13.188;2023-03-01T06:52:07;102465.91;;;-4.23;91.03
829;BME280;396;52.558;13.188;2023-03-01T06:54:33;102462.13;;;-4.20;90.57
829;BME280;396;52.558;13.188;2023-03-01T06:57:00;102471.03;;;-4.21;90.49
829;BME280;396;52.558;13.188;2023-03-01T06:59:27;102481.84;;;-4.15;90.19
829;BME280;396;52.558;13.188;2023-03-01T07:01:54;102482.06;;;-4.00;90.25
829;BME280;396;52.558;13.188;2023-03-01T07:04:21;102473.94;;;-4.07;91.09
829;BME280;396;52.558;13.188;2023-03-01T07:06:48;102467.63;;;-4.14;91.34
829;BME280;396;52.558;13.188;2023-03-01T07:09:20;102476.38;;;-4.13;92.23
829;BME280;396;52.558;13.188;2023-03-01T07:11:47;102472.44;;;-4.09;92.45
829;BME280;396;52.558;13.188;2023-03-01T07:14:14;102475.13;;;-4.01;91.92
829;BME280;396;52.558;13.188;2023-03-01T07:16:40;102485.75;;;-3.93;91.18
829;BME280;396;52.558;13.188;2023-03-01T07:19:08;102477.72;;;-3.75;91.40
829;BME280;396;52.558;13.188;2023-03-01T07:21:35;102479.41;;;-3.66;91.56
829;BME280;396;52.558;13.188;2023-03-01T07:24:04;102475.34;;;-3.44;92.67
829;BME280;396;52.558;13.188;2023-03-01T07:26:31;102471.38;;;-3.40;94.38
829;BME280;396;52.558;13.188;2023-03-01T07:28:59;102478.19;;;-3.29;93.59
829;BME280;396;52.558;13.188;2023-03-01T07:31:26;102476.88;;;-3.17;92.99
829;BME280;396;52.558;13.188;2023-03-01T07:33:53;102478.75;;;-3.01;92.96
829;BME280;396;52.558;13.188;2023-03-01T07:36:21;102479.22;;;-2.89;93.51
829;BME280;396;52.558;13.188;2023-03-01T07:38:48;102477.72;;;-2.84;93.52
829;BME280;396;52.558;13.188;2023-03-01T07:41:15;102474.44;;;-2.69;93.69
829;BME280;396;52.558;13.188;2023-03-01T07:43:41;102473.59;;;-2.54;93.08
829;BME280;396;52.558;13.188;2023-03-01T07:46:08;102470.75;;;-2.36;93.27
829;BME280;396;52.558;13.188;2023-03-01T07:48:35;102481.34;;;-2.36;93.89
829;BME280;396;52.558;13.188;2023-03-01T07:51:03;102475.19;;;-2.20;93.14
829;BME280;396;52.558;13.188;2023-03-01T07:53:31;102467.69;;;-2.08;93.11
829;BME280;396;52.558;13.188;2023-03-01T07:56:03;102470.50;;;-2.01;92.84
829;BME280;396;52.558;13.188;2023-03-01T07:58:31;102474.25;;;-1.88;92.97
829;BME280;396;52.558;13.188;2023-03-01T08:01:01;102475.66;;;-1.69;92.09
829;BME280;396;52.558;13.188;2023-03-01T08:03:28;102472.75;;;-1.51;91.08
829;BME280;396;52.558;13.188;2023-03-01T08:05:54;102470.84;;;-1.34;90.43
829;BME280;396;52.558;13.188;2023-03-01T08:08:21;102468.63;;;-1.22;90.63
829;BME280;396;52.558;13.188;2023-03-01T08:10:49;102475.88;;;-1.16;89.59
829;BME280;396;52.558;13.188;2023-03-01T08:13:15;102474.00;;;-1.08;89.18
829;BME280;396;52.558;13.188;2023-03-01T08:15:47;102466.44;;;-0.96;88.75
829;BME280;396;52.558;13.188;2023-03-01T08:18:14;102471.81;;;-0.81;88.08
829;BME280;396;52.558;13.188;2023-03-01T08:20:40;102467.00;;;-0.63;87.84
829;BME280;396;52.558;13.188;2023-03-01T08:23:07;102460.03;;;-0.49;87.27
829;BME280;396;52.558;13.188;2023-03-01T08:25:34;102471.63;;;-0.42;86.45
829;BME280;396;52.558;13.188;2023-03-01T08:28:02;102460.72;;;-0.32;86.27
829;BME280;396;52.558;13.188;2023-03-01T08:30:29;102452.28;;;-0.21;86.03
829;BME280;396;52.558;13.188;2023-03-01T08:32:55;102452.63;;;-0.09;85.66
829;BME280;396;52.558;13.188;2023-03-01T08:35:22;102449.44;;;0.10;85.54
829;BME280;396;52.558;13.188;2023-03-01T08:37:49;102448.00;;;0.29;84.54
829;BME280;396;52.558;13.188;2023-03-01T08:40:16;102453.97;;;0.46;83.58
829;BME280;396;52.558;13.188;2023-03-01T08:42:42;102450.78;;;0.57;82.59
829;BME280;396;52.558;13.188;2023-03-01T08:45:11;102450.56;;;0.73;82.54
829;BME280;396;52.558;13.188;2023-03-01T08:47:39;102458.34;;;0.90;81.89
829;BME280;396;52.558;13.188;2023-03-01T08:50:06;102446.56;;;1.06;81.03
829;BME280;396;52.558;13.188;2023-03-01T08:52:33;102454.44;;;1.14;80.23
829;BME280;396;52.558;13.188;2023-03-01T08:55:00;102451.06;;;1.26;79.84
829;BME280;396;52.558;13.188;2023-03-01T08:57:27;102454.06;;;1.45;79.51
829;BME280;396;52.558;13.188;2023-03-01T08:59:54;102454.97;;;1.52;78.62
829;BME280;396;52.558;13.188;2023-03-01T09:02:22;102451.94;;;1.62;78.66
829;BME280;396;52.558;13.188;2023-03-01T09:04:49;102437.25;;;1.79;78.21
829;BME280;396;52.558;13.188;2023-03-01T09:07:16;102437.72;;;1.89;76.72
829;BME280;396;52.558;13.188;2023-03-01T09:09:42;102431.25;;;2.05;76.55
829;BME280;396;52.558;13.188;2023-03-01T09:12:09;102435.38;;;2.14;75.84
829;BME280;396;52.558;13.188;2023-03-01T09:14:35;102438.56;;;2.31;75.40
829;BME280;396;52.558;13.188;2023-03-01T09:17:04;102443.13;;;2.44;73.49
829;BME280;396;52.558;13.188;2023-03-01T09:19:32;102441.09;;;2.52;72.33
829;BME280;396;52.558;13.188;2023-03-01T09:21:58;102439.06;;;2.68;71.38
829;BME280;396;52.558;13.188;2023-03-01T09:24:25;102438.88;;;2.83;70.95
829;BME280;396;52.558;13.188;2023-03-01T09:26:55;102441.34;;;2.91;70.43
829;BME280;396;52.558;13.188;2023-03-01T09:29:22;102443.25;;;3.10;69.76
829;BME280;396;52.558;13.188;2023-03-01T09:31:49;102441.59;;;3.22;68.93
829;BME280;396;52.558;13.188;2023-03-01T09:34:16;102429.22;;;3.21;66.01
829;BME280;396;52.558;13.188;2023-03-01T09:36:49;102435.22;;;3.30;66.19
829;BME280;396;52.558;13.188;2023-03-01T09:39:17;102428.19;;;3.42;65.13
829;BME280;396;52.558;13.188;2023-03-01T09:41:48;102436.00;;;3.57;64.09
829;BME280;396;52.558;13.188;2023-03-01T09:44:27;102431.66;;;3.69;62.97
829;BME280;396;52.558;13.188;2023-03-01T09:46:57;102433.69;;;3.80;60.76
829;BME280;396;52.558;13.188;2023-03-01T09:49:25;102436.59;;;3.86;60.26
829;BME280;396;52.558;13.188;2023-03-01T09:52:00;102431.19;;;3.92;60.11
829;BME280;396;52.558;13.188;2023-03-01T09:54:30;102434.44;;;4.08;61.03
829;BME280;396;52.558;13.188;2023-03-01T09:57:06;102438.16;;;4.07;60.89
829;BME280;396;52.558;13.188;2023-03-01T09:59:44;102437.97;;;4.08;60.99
829;BME280;396;52.558;13.188;2023-03-01T10:02:23;102438.34;;;4.12;60.45
829;BME280;396;52.558;13.188;2023-03-01T10:04:52;102431.91;;;4.19;60.77
829;BME280;396;52.558;13.188;2023-03-01T10:07:27;102436.19;;;4.34;60.09
829;BME280;396;52.558;13.188;2023-03-01T10:09:57;102438.38;;;4.50;59.88
829;BME280;396;52.558;13.188;2023-03-01T10:12:30;102444.72;;;4.62;58.12
829;BME280;396;52.558;13.188;2023-03-01T10:15:04;102443.00;;;4.74;57.90
829;BME280;396;52.558;13.188;2023-03-01T10:17:36;102444.38;;;4.84;57.77
829;BME280;396;52.558;13.188;2023-03-01T10:20:25;102448.94;;;4.83;57.85
829;BME280;396;52.558;13.188;2023-03-01T10:22:53;102447.06;;;4.84;56.29
829;BME280;396;52.558;13.188;2023-03-01T10:25:32;102438.31;;;4.95;56.77
829;BME280;396;52.558;13.188;2023-03-01T10:28:07;102436.56;;;5.07;55.97
829;BME280;396;52.558;13.188;2023-03-01T10:30:38;102436.91;;;5.17;56.11
829;BME280;396;52.558;13.188;2023-03-01T10:33:15;102430.13;;;5.15;56.09
829;BME280;396;52.558;13.188;2023-03-01T10:35:43;102421.78;;;5.23;56.96
829;BME280;396;52.558;13.188;2023-03-01T10:38:13;102420.00;;;5.35;57.38
829;BME280;396;52.558;13.188;2023-03-01T10:40:51;102423.63;;;5.47;57.13
829;BME280;396;52.558;13.188;2023-03-01T10:43:19;102419.84;;;5.55;56.59
829;BME280;396;52.558;13.188;2023-03-01T10:45:46;102412.22;;;5.70;55.66
829;BME280;396;52.558;13.188;2023-03-01T10:48:15;102409.38;;;5.65;54.21
829;BME280;396;52.558;13.188;2023-03-01T10:50:44;102408.03;;;5.74;54.50
829;BME280;396;52.558;13.188;2023-03-01T10:53:23;102408.66;;;5.76;54.08
829;BME280;396;52.558;13.188;2023-03-01T10:56:00;102410.44;;;5.82;54.27
829;BME280;396;52.558;13.188;2023-03-01T10:58:28;102401.06;;;5.92;54.00
829;BME280;396;52.558;13.188;2023-03-01T11:00:56;102406.13;;;6.18;52.84
829;BME280;396;52.558;13.188;2023-03-01T11:03:25;102396.97;;;6.38;52.76
829;BME280;396;52.558;13.188;2023-03-01T11:05:55;102401.69;;;6.54;52.09
829;BME280;396;52.558;13.188;2023-03-01T11:08:35;102403.13;;;6.68;51.62
829;BME280;396;52.558;13.188;2023-03-01T11:11:21;102401.66;;;6.84;51.30
829;BME280;396;52.558;13.188;2023-03-01T11:13:54;102384.34;;;6.92;50.94
829;BME280;396;52.558;13.188;2023-03-01T11:16:31;102377.78;;;6.88;50.07
829;BME280;396;52.558;13.188;2023-03-01T11:19:04;102383.41;;;6.98;50.34
829;BME280;396;52.558;13.188;2023-03-01T11:21:32;102368.09;;;7.10;49.13
829;BME280;396;52.558;13.188;2023-03-01T11:24:02;102374.53;;;7.32;48.26
829;BME280;396;52.558;13.188;2023-03-01T11:26:33;102375.00;;;7.41;46.28
829;BME280;396;52.558;13.188;2023-03-01T11:29:05;102371.91;;;7.73;46.44
829;BME280;396;52.558;13.188;2023-03-01T11:31:34;102375.06;;;8.22;43.88
829;BME280;396;52.558;13.188;2023-03-01T11:34:05;102372.06;;;8.47;42.70
829;BME280;396;52.558;13.188;2023-03-01T11:36:36;102379.19;;;9.20;40.75
829;BME280;396;52.558;13.188;2023-03-01T11:39:18;102376.13;;;10.38;39.60
829;BME280;396;52.558;13.188;2023-03-01T11:41:51;102376.66;;;11.36;36.65
829;BME280;396;52.558;13.188;2023-03-01T11:44:22;102382.50;;;12.23;36.62
829;BME280;396;52.558;13.188;2023-03-01T11:47:08;102382.00;;;12.57;33.62
829;BME280;396;52.558;13.188;2023-03-01T11:52:50;102381.53;;;14.51;32.78
829;BME280;396;52.558;13.188;2023-03-01T11:55:29;102391.03;;;15.51;32.84
829;BME280;396;52.558;13.188;2023-03-01T11:58:14;102393.66;;;16.28;31.38
829;BME280;396;52.558;13.188;2023-03-01T12:01:00;102389.44;;;16.73;29.32
829;BME280;396;52.558;13.188;2023-03-01T12:03:33;102392.72;;;17.22;28.84
829;BME280;396;52.558;13.188;2023-03-01T12:06:32;102385.63;;;16.74;27.70
829;BME280;396;52.558;13.188;2023-03-01T12:09:16;102384.09;;;17.14;28.06
829;BME280;396;52.558;13.188;2023-03-01T12:12:06;102376.56;;;17.67;27.79
829;BME280;396;52.558;13.188;2023-03-01T12:15:01;102377.78;;;18.38;27.71
829;BME280;396;52.558;13.188;2023-03-01T12:20:26;102369.25;;;19.47;25.95
829;BME280;396;52.558;13.188;2023-03-01T12:23:09;102367.75;;;19.32;23.87
829;BME280;396;52.558;13.188;2023-03-01T12:25:46;102365.22;;;19.44;24.73
829;BME280;396;52.558;13.188;2023-03-01T12:28:40;102363.22;;;19.67;24.44
829;BME280;396;52.558;13.188;2023-03-01T12:31:32;102362.16;;;19.54;24.11
829;BME280;396;52.558;13.188;2023-03-01T12:34:11;102356.31;;;19.47;26.19
829;BME280;396;52.558;13.188;2023-03-01T12:37:03;102357.06;;;19.30;24.29
829;BME280;396;52.558;13.188;2023-03-01T12:39:43;102346.94;;;18.77;24.15
829;BME280;396;52.558;13.188;2023-03-01T12:42:21;102348.28;;;19.20;24.54
829;BME280;396;52.558;13.188;2023-03-01T12:45:02;102337.41;;;19.06;24.41
829;BME280;396;52.558;13.188;2023-03-01T12:47:50;102333.47;;;18.98;24.36
829;BME280;396;52.558;13.188;2023-03-01T12:50:21;102330.06;;;19.32;23.68
829;BME280;396;52.558;13.188;2023-03-01T12:52:51;102328.72;;;19.61;25.15
829;BME280;396;52.558;13.188;2023-03-01T12:55:27;102322.03;;;19.45;24.16
829;BME280;396;52.558;13.188;2023-03-01T12:58:03;102323.06;;;19.18;24.61
829;BME280;396;52.558;13.188;2023-03-01T13:00:37;102318.78;;;19.42;24.43
829;BME280;396;52.558;13.188;2023-03-01T13:03:18;102318.97;;;19.46;24.68
829;BME280;396;52.558;13.188;2023-03-01T13:06:02;102314.44;;;19.02;23.99
829;BME280;396;52.558;13.188;2023-03-01T13:08:36;102316.28;;;18.84;25.30
829;BME280;396;52.558;13.188;2023-03-01T13:11:15;102314.72;;;18.92;24.82
829;BME280;396;52.558;13.188;2023-03-01T13:13:42;102310.41;;;18.99;25.69
829;BME280;396;52.558;13.188;2023-03-01T13:16:39;102309.31;;;19.09;24.47
829;BME280;396;52.558;13.188;2023-03-01T13:19:11;102300.31;;;18.95;24.92
829;BME280;396;52.558;13.188;2023-03-01T13:21:39;102305.56;;;18.74;25.34
829;BME280;396;52.558;13.188;2023-03-01T13:24:24;102304.63;;;18.56;24.64
829;BME280;396;52.558;13.188;2023-03-01T13:27:21;102295.50;;;18.02;24.09
829;BME280;396;52.558;13.188;2023-03-01T13:29:51;102291.06;;;17.64;26.09
829;BME280;396;52.558;13.188;2023-03-01T13:32:24;102296.47;;;17.42;25.96
829;BME280;396;52.558;13.188;2023-03-01T13:34:55;102288.53;;;16.99;24.93
829;BME280;396;52.558;13.188;2023-03-01T13:37:25;102282.63;;;16.46;26.92
829;BME280;396;52.558;13.188;2023-03-01T13:39:55;102275.97;;;15.81;26.02
829;BME280;396;52.558;13.188;2023-03-01T13:42:37;102277.09;;;15.32;27.55
829;BME280;396;52.558;13.188;2023-03-01T13:45:16;102271.94;;;14.78;27.04
829;BME280;396;52.558;13.188;2023-03-01T13:47:46;102272.34;;;14.66;27.58